createdAt,value
2023-08-11T00:01:59.932Z,2.60
2023-08-11T00:04:26.972Z,2.78
2023-08-11T00:06:54.250Z,2.53
2023-08-11T00:09:21.597Z,2.65
2023-08-11T00:11:48.623Z,2.58
2023-08-11T00:14:15.543Z,2.78
2023-08-11T00:16:42.574Z,2.72
2023-08-11T00:19:09.535Z,2.40
2023-08-11T00:21:36.487Z,2.72
2023-08-11T00:24:03.640Z,2.60
2023-08-11T00:26:31.833Z,2.75
2023-08-11T00:28:58.894Z,2.70
2023-08-11T00:31:25.965Z,2.78
2023-08-11T00:33:53.158Z,2.95
2023-08-11T00:36:20.942Z,2.80
2023-08-11T00:38:50.248Z,2.83
2023-08-11T00:41:17.556Z,2.97
2023-08-11T00:43:45.050Z,3.00
2023-08-11T00:46:13.631Z,2.60
2023-08-11T00:48:48.762Z,2.78
2023-08-11T00:51:16.836Z,2.97
2023-08-11T00:53:43.870Z,2.55
2023-08-11T00:56:11.544Z,2.90
2023-08-11T00:58:40.342Z,2.80
2023-08-11T01:01:07.541Z,2.55
2023-08-11T01:03:35.591Z,2.83
2023-08-11T01:06:14.804Z,2.53
2023-08-11T01:08:56.524Z,2.58
2023-08-11T01:11:57.374Z,2.33
2023-08-11T01:14:48.459Z,2.97
2023-08-11T01:17:18.680Z,2.30
2023-08-11T01:19:46.607Z,2.70
2023-08-11T01:22:20.622Z,2.40
2023-08-11T01:24:48.129Z,2.40
2023-08-11T01:27:15.191Z,2.40
2023-08-11T01:29:42.256Z,2.78
2023-08-11T01:32:10.306Z,2.70
2023-08-11T01:34:37.695Z,2.65
2023-08-11T01:37:05.888Z,2.60
2023-08-11T01:39:34.254Z,2.53
2023-08-11T01:42:03.107Z,2.63
2023-08-11T01:44:31.270Z,2.50
2023-08-11T01:46:59.686Z,2.40
2023-08-11T01:49:30.455Z,2.38
2023-08-11T01:51:58.276Z,2.58
2023-08-11T01:54:25.839Z,2.45
2023-08-11T01:56:53.467Z,2.33
2023-08-11T01:59:20.857Z,2.13
2023-08-11T02:01:48.065Z,2.33
2023-08-11T02:04:16.218Z,2.90
2023-08-11T02:06:43.548Z,2.47
2023-08-11T02:09:10.632Z,2.60
2023-08-11T02:11:38.701Z,2.67
2023-08-11T02:14:07.578Z,2.40
2023-08-11T02:16:35.676Z,2.50
2023-08-11T02:19:03.032Z,2.58
2023-08-11T02:21:30.143Z,2.22
2023-08-11T02:23:57.146Z,2.60
2023-08-11T02:26:24.682Z,2.38
2023-08-11T02:28:54.166Z,2.40
2023-08-11T02:31:21.771Z,2.38
2023-08-11T02:33:49.052Z,2.15
2023-08-11T02:36:16.119Z,2.28
2023-08-11T02:38:46.345Z,2.53
2023-08-11T02:41:13.643Z,2.20
2023-08-11T02:43:40.890Z,2.58
2023-08-11T02:46:08.076Z,2.40
2023-08-11T02:48:35.189Z,2.58
2023-08-11T02:51:04.209Z,2.88
2023-08-11T02:53:32.097Z,2.60
2023-08-11T02:56:02.911Z,3.13
2023-08-11T02:58:30.004Z,2.58
2023-08-11T03:00:57.797Z,3.13
2023-08-11T03:03:25.105Z,2.38
2023-08-11T03:05:52.772Z,2.50
2023-08-11T03:08:20.599Z,3.00
2023-08-11T03:10:56.524Z,2.53
2023-08-11T03:13:32.629Z,2.63
2023-08-11T03:16:00.361Z,2.35
2023-08-11T03:18:29.101Z,2.58
2023-08-11T03:21:13.655Z,2.70
2023-08-11T03:23:46.055Z,2.40
2023-08-11T03:26:14.632Z,2.47
2023-08-11T03:28:42.253Z,2.40
2023-08-11T03:31:10.566Z,2.40
2023-08-11T03:33:42.227Z,2.60
2023-08-11T03:36:12.829Z,2.60
2023-08-11T03:38:40.019Z,2.83
2023-08-11T03:41:07.030Z,2.40
2023-08-11T03:43:37.037Z,2.65
2023-08-11T03:46:04.118Z,2.40
2023-08-11T03:48:31.363Z,2.70
2023-08-11T03:51:01.569Z,2.60
2023-08-11T03:53:31.480Z,2.15
2023-08-11T03:55:59.145Z,2.60
2023-08-11T03:58:28.777Z,2.80
2023-08-11T04:00:56.945Z,2.60
2023-08-11T04:03:29.561Z,2.58
2023-08-11T04:05:57.000Z,2.58
2023-08-11T04:08:24.973Z,2.50
2023-08-11T04:10:53.432Z,2.80
2023-08-11T04:13:20.804Z,2.90
2023-08-11T04:15:52.164Z,2.63
2023-08-11T04:18:44.724Z,2.80
2023-08-11T04:21:11.824Z,2.70
2023-08-11T04:23:38.970Z,2.42
2023-08-11T04:26:06.808Z,2.78
2023-08-11T04:28:34.269Z,2.95
2023-08-11T04:31:03.497Z,2.90
2023-08-11T04:33:33.458Z,2.88
2023-08-11T04:36:00.399Z,2.83
2023-08-11T04:38:28.853Z,3.13
2023-08-11T04:40:55.853Z,2.40
2023-08-11T04:43:23.435Z,2.85
2023-08-11T04:45:51.517Z,2.70
2023-08-11T04:48:19.065Z,3.05
2023-08-11T04:50:54.442Z,2.83
2023-08-11T04:53:22.485Z,3.10
2023-08-11T04:55:51.069Z,3.08
2023-08-11T04:58:19.937Z,3.33
2023-08-11T05:00:47.047Z,2.85
2023-08-11T05:03:14.412Z,3.30
2023-08-11T05:05:42.704Z,3.08
2023-08-11T05:08:10.463Z,3.30
2023-08-11T05:10:38.459Z,3.35
2023-08-11T05:13:05.890Z,3.50
2023-08-11T05:15:32.853Z,3.00
2023-08-11T05:18:00.201Z,2.90
2023-08-11T05:20:27.376Z,3.10
2023-08-11T05:22:54.595Z,3.50
2023-08-11T05:25:21.913Z,3.70
2023-08-11T05:27:50.098Z,3.15
2023-08-11T05:30:18.276Z,2.88
2023-08-11T05:32:45.486Z,3.22
2023-08-11T05:35:13.640Z,3.50
2023-08-11T05:37:40.666Z,3.50
2023-08-11T05:40:09.922Z,3.30
2023-08-11T05:42:37.044Z,3.40
2023-08-11T05:45:05.245Z,2.92
2023-08-11T05:47:32.217Z,2.70
2023-08-11T05:49:59.293Z,3.05
2023-08-11T05:52:26.857Z,2.63
2023-08-11T05:54:53.859Z,2.72
2023-08-11T05:57:20.821Z,2.75
2023-08-11T05:59:47.813Z,2.75
2023-08-11T06:02:14.808Z,2.80
2023-08-11T06:04:44.651Z,2.65
2023-08-11T06:07:12.485Z,2.80
2023-08-11T06:09:39.823Z,2.25
2023-08-11T06:12:07.905Z,2.45
2023-08-11T06:14:35.473Z,2.42
2023-08-11T06:17:02.512Z,2.85
2023-08-11T06:19:29.543Z,2.50
2023-08-11T06:21:56.974Z,2.55
2023-08-11T06:24:24.691Z,2.03
2023-08-11T06:26:52.963Z,2.35
2023-08-11T06:29:20.702Z,2.15
2023-08-11T06:31:47.946Z,2.20
2023-08-11T06:34:18.415Z,2.65
2023-08-11T06:36:48.972Z,2.30
2023-08-11T06:39:16.267Z,2.22
2023-08-11T06:41:43.457Z,2.15
2023-08-11T06:44:10.639Z,2.53
2023-08-11T06:46:37.977Z,2.33
2023-08-11T06:49:09.954Z,2.38
2023-08-11T06:51:40.191Z,2.40
2023-08-11T06:54:09.160Z,2.15
2023-08-11T06:56:39.605Z,2.20
2023-08-11T06:59:08.145Z,2.15
2023-08-11T07:01:38.725Z,2.40
2023-08-11T07:04:06.302Z,2.13
2023-08-11T07:06:33.378Z,2.13
2023-08-11T07:09:00.737Z,2.17
2023-08-11T07:11:28.102Z,1.90
2023-08-11T07:13:55.178Z,1.90
2023-08-11T07:16:22.580Z,2.25
2023-08-11T07:18:49.645Z,2.03
2023-08-11T07:21:22.040Z,1.95
2023-08-11T07:23:49.859Z,2.17
2023-08-11T07:26:16.967Z,2.10
2023-08-11T07:28:44.636Z,1.90
2023-08-11T07:31:12.002Z,2.03
2023-08-11T07:33:41.421Z,2.10
2023-08-11T07:36:08.654Z,2.35
2023-08-11T07:38:35.633Z,2.10
2023-08-11T07:41:02.782Z,2.10
2023-08-11T07:43:29.674Z,2.20
2023-08-11T07:45:56.678Z,2.13
2023-08-11T07:48:23.823Z,2.05
2023-08-11T07:50:50.802Z,2.00
2023-08-11T07:53:17.829Z,2.22
2023-08-11T07:55:44.947Z,2.08
2023-08-11T07:58:12.047Z,2.33
2023-08-11T08:00:39.164Z,2.13
2023-08-11T08:03:06.396Z,2.05
2023-08-11T08:05:33.604Z,2.20
2023-08-11T08:08:00.619Z,1.95
2023-08-11T08:10:27.622Z,1.83
2023-08-11T08:12:54.690Z,1.80
2023-08-11T08:15:22.669Z,1.80
2023-08-11T08:17:50.706Z,1.70
2023-08-11T08:20:17.744Z,1.90
2023-08-11T08:22:45.559Z,2.13
2023-08-11T08:25:12.762Z,1.80
2023-08-11T08:27:41.459Z,1.80
2023-08-11T08:30:13.015Z,1.63
2023-08-11T08:32:41.695Z,2.15
2023-08-11T08:35:10.521Z,1.75
2023-08-11T08:37:37.675Z,1.50
2023-08-11T08:40:05.460Z,1.90
2023-08-11T08:42:34.322Z,1.67
2023-08-11T08:45:02.124Z,1.50
2023-08-11T08:47:30.105Z,1.67
2023-08-11T08:49:59.305Z,1.60
2023-08-11T08:52:26.691Z,1.55
2023-08-11T08:54:54.014Z,1.33
2023-08-11T08:57:23.160Z,1.70
2023-08-11T08:59:50.326Z,1.67
2023-08-11T09:02:18.409Z,1.58
2023-08-11T09:04:47.184Z,1.60
2023-08-11T09:07:14.352Z,1.25
2023-08-11T09:09:41.536Z,1.30
2023-08-11T09:12:08.952Z,1.50
2023-08-11T09:14:38.525Z,1.45
2023-08-11T09:17:06.893Z,1.48
2023-08-11T09:19:34.146Z,1.30
2023-08-11T09:22:03.027Z,1.40
2023-08-11T09:24:33.381Z,1.38
2023-08-11T09:27:00.918Z,1.00
2023-08-11T09:29:29.517Z,1.00
2023-08-11T09:31:57.392Z,1.00
2023-08-11T09:34:25.846Z,1.10
2023-08-11T09:36:52.877Z,1.00
2023-08-11T09:39:22.279Z,1.00
2023-08-11T09:41:50.163Z,1.10
2023-08-11T09:44:19.290Z,1.10
2023-08-11T09:46:47.655Z,0.88
2023-08-11T09:49:21.507Z,1.05
2023-08-11T09:51:51.477Z,0.80
2023-08-11T09:54:21.305Z,0.80
2023-08-11T09:56:50.548Z,1.35
2023-08-11T09:59:21.847Z,1.00
2023-08-11T10:01:51.263Z,1.10
2023-08-11T10:04:34.866Z,0.95
2023-08-11T10:07:04.621Z,1.35
2023-08-11T10:09:35.498Z,0.80
2023-08-11T10:12:05.569Z,0.98
2023-08-11T10:14:35.841Z,1.10
2023-08-11T10:17:04.729Z,0.77
2023-08-11T10:19:32.701Z,0.90
2023-08-11T10:22:01.267Z,0.75
2023-08-11T10:24:28.827Z,0.70
2023-08-11T10:26:56.162Z,0.80
2023-08-11T10:29:23.562Z,0.73
2023-08-11T10:31:58.757Z,0.80
2023-08-11T10:34:27.507Z,0.88
2023-08-11T10:36:58.715Z,0.80
2023-08-11T10:39:27.791Z,0.90
2023-08-11T10:41:58.584Z,0.82
2023-08-11T10:44:32.637Z,0.82
2023-08-11T10:47:04.324Z,0.88
2023-08-11T10:49:36.066Z,0.90
2023-08-11T10:52:09.000Z,1.00
2023-08-11T10:54:39.114Z,0.88
2023-08-11T10:57:07.517Z,0.80
2023-08-11T10:59:41.012Z,1.33
2023-08-11T11:02:08.207Z,1.00
2023-08-11T11:04:35.572Z,0.95
2023-08-11T11:07:02.882Z,1.17
2023-08-11T11:09:30.228Z,1.13
2023-08-11T11:12:02.747Z,0.73
2023-08-11T11:17:04.555Z,1.02
2023-08-11T11:19:32.904Z,0.80
2023-08-11T11:22:00.911Z,0.85
2023-08-11T11:24:31.669Z,1.00
2023-08-11T11:27:03.325Z,1.02
2023-08-11T11:29:30.523Z,0.70
2023-08-11T11:32:00.709Z,0.80
2023-08-11T11:34:28.100Z,0.90
2023-08-11T11:36:55.161Z,1.00
2023-08-11T11:39:23.491Z,0.70
2023-08-11T11:41:52.265Z,0.98
2023-08-11T11:44:19.760Z,0.77
2023-08-11T11:46:51.904Z,0.80
2023-08-11T11:49:30.001Z,1.02
2023-08-11T11:51:59.491Z,0.88
2023-08-11T11:54:33.203Z,0.98
2023-08-11T11:57:08.241Z,0.70
2023-08-11T12:02:14.372Z,1.10
2023-08-11T12:04:46.889Z,0.93
2023-08-11T12:07:31.170Z,0.98
2023-08-11T12:09:58.676Z,1.00
2023-08-11T12:12:27.014Z,1.08
2023-08-11T12:14:55.447Z,0.98
2023-08-11T12:17:23.368Z,0.90
2023-08-11T12:19:51.128Z,1.10
2023-08-11T12:22:18.260Z,0.80
2023-08-11T12:24:47.105Z,1.13
2023-08-11T12:27:14.156Z,0.90
2023-08-11T12:29:42.246Z,0.88
2023-08-11T12:32:09.504Z,1.02
2023-08-11T12:34:36.844Z,0.85
2023-08-11T12:37:04.124Z,0.70
2023-08-11T12:39:33.240Z,0.70
2023-08-11T12:42:00.312Z,0.70
2023-08-11T12:44:27.313Z,0.95
2023-08-11T12:46:55.590Z,0.70
2023-08-11T12:49:22.984Z,0.93
2023-08-11T12:51:52.441Z,0.80
2023-08-11T12:54:20.121Z,1.00
2023-08-11T12:56:47.958Z,1.10
2023-08-11T12:59:16.636Z,1.05
2023-08-11T13:01:43.702Z,1.05
2023-08-11T13:04:12.766Z,1.00
2023-08-11T13:06:42.005Z,1.20
2023-08-11T13:09:09.083Z,1.02
2023-08-11T13:11:36.179Z,0.82
2023-08-11T13:14:04.751Z,0.98
2023-08-11T13:16:34.145Z,0.90
2023-08-11T13:19:01.200Z,1.05
2023-08-11T13:21:28.763Z,0.90
2023-08-11T13:23:55.753Z,0.90
2023-08-11T13:26:22.962Z,1.05
2023-08-11T13:28:51.783Z,0.80
2023-08-11T13:31:18.745Z,0.82
2023-08-11T13:33:46.074Z,0.85
2023-08-11T13:36:14.605Z,0.70
2023-08-11T13:38:41.740Z,0.80
2023-08-11T13:41:10.602Z,1.00
2023-08-11T13:43:40.748Z,0.80
2023-08-11T13:46:07.815Z,0.90
2023-08-11T13:48:34.834Z,0.80
2023-08-11T13:51:02.008Z,0.90
2023-08-11T13:53:29.054Z,1.13
2023-08-11T13:55:56.073Z,0.95
2023-08-11T13:58:23.203Z,0.73
2023-08-11T14:00:50.234Z,0.88
2023-08-11T14:03:17.686Z,0.85
2023-08-11T14:05:44.695Z,1.00
2023-08-11T14:08:13.482Z,0.90
2023-08-11T14:10:40.598Z,0.60
2023-08-11T14:13:10.312Z,0.82
2023-08-11T14:15:39.133Z,0.70
2023-08-11T14:18:07.442Z,0.90
2023-08-11T14:20:34.921Z,0.90
2023-08-11T14:23:02.117Z,0.90
2023-08-11T14:25:29.169Z,0.70
2023-08-11T14:27:56.316Z,0.77
2023-08-11T14:30:23.509Z,0.73
2023-08-11T14:32:50.709Z,0.90
2023-08-11T14:35:17.895Z,0.75
2023-08-11T14:37:44.993Z,0.82
2023-08-11T14:40:12.257Z,0.68
2023-08-11T14:42:39.390Z,0.80
2023-08-11T14:45:08.374Z,0.73
2023-08-11T14:47:35.813Z,1.02
2023-08-11T14:50:02.941Z,0.90
2023-08-11T14:52:31.620Z,0.90
2023-08-11T14:54:59.131Z,0.82
2023-08-11T14:57:28.289Z,0.93
2023-08-11T14:59:55.967Z,1.00
2023-08-11T15:02:23.178Z,0.85
2023-08-11T15:04:50.255Z,0.85
2023-08-11T15:07:17.630Z,0.70
2023-08-11T15:09:46.037Z,0.95
2023-08-11T15:12:13.331Z,1.00
2023-08-11T15:14:41.585Z,0.80
2023-08-11T15:17:08.567Z,0.63
2023-08-11T15:19:36.071Z,0.80
2023-08-11T15:22:03.260Z,1.05
2023-08-11T15:24:30.479Z,1.10
2023-08-11T15:26:57.454Z,0.70
2023-08-11T15:29:24.676Z,0.90
2023-08-11T15:32:07.269Z,0.73
2023-08-11T15:34:35.250Z,0.70
2023-08-11T15:37:03.385Z,0.80
2023-08-11T15:39:30.338Z,0.70
2023-08-11T15:41:57.224Z,1.00
2023-08-11T15:44:26.461Z,0.65
2023-08-11T15:46:53.680Z,0.73
2023-08-11T15:49:20.714Z,0.68
2023-08-11T15:51:48.670Z,0.90
2023-08-11T15:54:16.726Z,0.70
2023-08-11T15:56:44.133Z,0.68
2023-08-11T15:59:11.520Z,0.80
2023-08-11T16:01:40.059Z,1.05
2023-08-11T16:04:07.565Z,0.90
2023-08-11T16:06:34.720Z,0.70
2023-08-11T16:09:02.461Z,0.63
2023-08-11T16:11:29.516Z,0.80
2023-08-11T16:13:56.583Z,0.80
2023-08-11T16:16:23.652Z,0.90
2023-08-11T16:18:52.349Z,0.80
2023-08-11T16:21:20.816Z,0.77
2023-08-11T16:23:49.732Z,0.75
2023-08-11T16:26:16.897Z,1.10
2023-08-11T16:28:44.589Z,0.90
2023-08-11T16:31:13.692Z,1.00
2023-08-11T16:33:40.722Z,0.70
2023-08-11T16:36:10.628Z,0.70
2023-08-11T16:38:40.557Z,0.85
2023-08-11T16:41:14.231Z,0.75
2023-08-11T16:43:43.460Z,1.00
2023-08-11T16:46:10.565Z,1.08
2023-08-11T16:48:37.595Z,0.70
2023-08-11T16:51:05.951Z,1.05
2023-08-11T16:53:33.189Z,1.00
2023-08-11T16:56:00.165Z,1.00
2023-08-11T16:58:27.186Z,1.20
2023-08-11T17:00:57.077Z,1.00
2023-08-11T17:03:24.975Z,1.00
2023-08-11T17:05:53.737Z,1.10
2023-08-11T17:08:23.568Z,1.00
2023-08-11T17:10:51.840Z,0.98
2023-08-11T17:13:18.952Z,0.95
2023-08-11T17:15:46.054Z,1.00
2023-08-11T17:18:13.119Z,1.00
2023-08-11T17:20:40.312Z,0.90
2023-08-11T17:23:07.346Z,0.80
2023-08-11T17:25:34.587Z,1.02
2023-08-11T17:28:01.773Z,0.80
2023-08-11T17:30:30.918Z,0.98
2023-08-11T17:32:58.963Z,1.10
2023-08-11T17:35:26.913Z,0.80
2023-08-11T17:37:54.223Z,0.60
2023-08-11T17:40:21.775Z,0.90
2023-08-11T17:42:48.940Z,0.65
2023-08-11T17:45:16.323Z,1.80
2023-08-11T17:47:47.773Z,1.50
2023-08-11T17:50:16.246Z,1.10
2023-08-11T17:52:44.013Z,0.85
2023-08-11T17:55:11.204Z,0.98
2023-08-11T17:57:38.713Z,1.20
2023-08-11T18:00:09.265Z,0.80
2023-08-11T18:02:40.050Z,0.75
2023-08-11T18:05:07.869Z,0.88
2023-08-11T18:07:35.070Z,1.10
2023-08-11T18:10:02.734Z,1.35
2023-08-11T18:12:32.040Z,1.08
2023-08-11T18:15:09.988Z,0.80
2023-08-11T18:17:38.201Z,1.10
2023-08-11T18:20:07.593Z,1.20
2023-08-11T18:22:35.628Z,1.20
2023-08-11T18:25:04.013Z,1.13
2023-08-11T18:27:33.183Z,0.82
2023-08-11T18:30:01.991Z,1.13
2023-08-11T18:32:29.373Z,1.10
2023-08-11T18:34:56.511Z,0.98
2023-08-11T18:37:25.440Z,1.00
2023-08-11T18:39:53.534Z,1.02
2023-08-11T18:42:21.803Z,0.88
2023-08-11T18:44:49.044Z,1.20
2023-08-11T18:47:17.017Z,1.25
2023-08-11T18:49:45.080Z,1.40
2023-08-11T18:52:13.815Z,1.30
2023-08-11T18:54:42.509Z,0.95
2023-08-11T18:57:13.492Z,1.58
2023-08-11T18:59:41.494Z,1.20
2023-08-11T19:02:09.147Z,1.05
2023-08-11T19:04:36.577Z,1.10
2023-08-11T19:07:03.753Z,1.27
2023-08-11T19:09:30.821Z,1.38
2023-08-11T19:11:57.885Z,1.23
2023-08-11T19:14:24.830Z,1.40
2023-08-11T19:16:52.009Z,1.48
2023-08-11T19:19:19.034Z,1.30
2023-08-11T19:21:46.393Z,1.30
2023-08-11T19:24:14.278Z,1.30
2023-08-11T19:26:46.042Z,1.27
2023-08-11T19:29:13.559Z,1.40
2023-08-11T19:31:43.191Z,1.80
2023-08-11T19:34:12.371Z,1.70
2023-08-11T19:36:44.248Z,1.25
2023-08-11T19:39:11.405Z,1.73
2023-08-11T19:41:40.265Z,1.33
2023-08-11T19:44:07.676Z,1.20
2023-08-11T19:46:34.763Z,1.35
2023-08-11T19:49:07.079Z,1.50
2023-08-11T19:51:35.209Z,1.70
2023-08-11T19:54:03.617Z,1.33
2023-08-11T19:56:30.661Z,1.60
2023-08-11T19:58:57.745Z,1.60
2023-08-11T20:01:24.865Z,1.65
2023-08-11T20:03:51.930Z,1.67
2023-08-11T20:06:18.980Z,1.83
2023-08-11T20:08:46.063Z,1.77
2023-08-11T20:11:13.112Z,1.92
2023-08-11T20:13:40.146Z,1.83
2023-08-11T20:16:07.289Z,1.50
2023-08-11T20:18:34.744Z,1.90
2023-08-11T20:21:01.831Z,1.80
2023-08-11T20:23:29.342Z,1.95
2023-08-11T20:25:57.666Z,2.00
2023-08-11T20:28:26.701Z,1.85
2023-08-11T20:31:01.997Z,2.30
2023-08-11T20:35:59.641Z,1.73
2023-08-11T20:38:27.627Z,2.13
2023-08-11T20:40:58.266Z,2.35
2023-08-11T20:43:26.478Z,1.75
2023-08-11T20:45:53.805Z,1.80
2023-08-11T20:48:21.089Z,1.90
2023-08-11T20:50:54.872Z,2.00
2023-08-11T20:53:22.712Z,1.90
2023-08-11T20:55:49.885Z,1.77
2023-08-11T20:58:16.857Z,2.15
2023-08-11T21:00:45.504Z,1.92
2023-08-11T21:03:13.686Z,2.05
2023-08-11T21:05:42.389Z,2.05
2023-08-11T21:08:14.366Z,2.15
2023-08-11T21:10:42.802Z,2.22
2023-08-11T21:13:09.976Z,2.30
2023-08-11T21:15:38.649Z,2.08
2023-08-11T21:18:10.465Z,2.20
2023-08-11T21:20:39.335Z,2.30
2023-08-11T21:23:07.510Z,2.03
2023-08-11T21:25:35.426Z,2.20
2023-08-11T21:28:02.525Z,1.98
2023-08-11T21:30:29.636Z,2.20
2023-08-11T21:32:56.860Z,2.20
2023-08-11T21:35:24.064Z,1.95
2023-08-11T21:37:52.997Z,2.03
2023-08-11T21:40:20.017Z,2.00
2023-08-11T21:42:48.680Z,2.38
2023-08-11T21:45:15.683Z,2.15
2023-08-11T21:47:42.781Z,2.00
2023-08-11T21:50:09.950Z,2.00
2023-08-11T21:52:37.000Z,2.10
2023-08-11T21:55:04.535Z,1.92
2023-08-11T21:57:32.749Z,1.73
2023-08-11T22:00:00.252Z,2.08
2023-08-11T22:02:27.504Z,2.00
2023-08-11T22:04:54.559Z,2.00
2023-08-11T22:07:24.174Z,2.10
2023-08-11T22:09:51.162Z,1.90
2023-08-11T22:12:18.293Z,1.90
2023-08-11T22:14:45.947Z,2.58
2023-08-11T22:17:14.878Z,1.98
2023-08-11T22:19:47.457Z,2.00
2023-08-11T22:22:18.676Z,2.17
2023-08-11T22:24:45.855Z,1.90
2023-08-11T22:27:13.263Z,1.60
2023-08-11T22:29:40.736Z,1.85
2023-08-11T22:32:07.859Z,2.20
2023-08-11T22:34:36.400Z,2.00
2023-08-11T22:37:03.915Z,1.90
2023-08-11T22:39:31.058Z,2.00
2023-08-11T22:41:58.561Z,2.08
2023-08-11T22:44:25.567Z,1.80
2023-08-11T22:46:53.963Z,2.00
2023-08-11T22:49:22.418Z,2.03
2023-08-11T22:51:50.051Z,1.80
2023-08-11T22:54:17.042Z,1.63
2023-08-11T22:56:44.711Z,2.03
2023-08-11T22:59:11.835Z,1.80
2023-08-11T23:01:39.170Z,2.10
2023-08-11T23:04:06.433Z,1.88
2023-08-11T23:06:33.554Z,2.00
2023-08-11T23:09:01.023Z,2.63
2023-08-11T23:11:28.904Z,2.20
2023-08-11T23:13:55.943Z,2.03
2023-08-11T23:16:23.106Z,1.90
2023-08-11T23:18:51.406Z,1.98
2023-08-11T23:21:19.331Z,2.10
2023-08-11T23:23:46.420Z,1.90
2023-08-11T23:26:13.368Z,2.25
2023-08-11T23:28:40.306Z,2.03
2023-08-11T23:31:07.416Z,2.00
2023-08-11T23:33:34.509Z,2.42
2023-08-11T23:36:01.515Z,2.42
2023-08-11T23:38:28.474Z,2.33
2023-08-11T23:40:55.637Z,2.30
2023-08-11T23:43:24.102Z,2.50
2023-08-11T23:45:52.245Z,2.28
2023-08-11T23:48:19.899Z,2.60
2023-08-11T23:50:46.948Z,2.25
2023-08-11T23:53:13.987Z,2.42
2023-08-11T23:55:41.592Z,2.30
2023-08-11T23:58:08.568Z,2.40
